sensor_id;sensor_type;location;lat;lon;timestamp;pressure;altitude;pressure_sealevel;temperature;humidity
9474;BME280;8865;47.636;7.692;2023-04-27T00:01:55;98321.25;;;10.79;100.00
9474;BME280;8865;47.636;7.692;2023-04-27T00:04:21;98316.88;;;10.80;100.00
9474;BME280;8865;47.636;7.692;2023-04-27T00:06:47;98319.50;;;10.80;100.00
9474;BME280;8865;47.636;7.692;2023-04-27T00:09:12;98314.38;;;10.78;100.00
9474;BME280;8865;47.636;7.692;2023-04-27T00:11:38;98309.97;;;10.79;100.00
9474;BME280;8865;47.636;7.692;2023-04-27T00:14:04;98314.53;;;10.77;100.00
9474;BME280;8865;47.636;7.692;2023-04-27T00:16:31;98313.81;;;10.75;100.00
9474;BME280;8865;47.636;7.692;2023-04-27T00:18:57;98324.28;;;10.75;100.00
9474;BME280;8865;47.636;7.692;2023-04-27T00:21:23;98319.03;;;10.75;100.00
9474;BME280;8865;47.636;7.692;2023-04-27T00:23:49;98317.13;;;10.77;100.00
9474;BME280;8865;47.636;7.692;2023-04-27T00:26:15;98317.41;;;10.74;100.00
9474;BME280;8865;47.636;7.692;2023-04-27T00:28:41;98306.91;;;10.74;100.00
9474;BME280;8865;47.636;7.692;2023-04-27T00:31:07;98307.88;;;10.72;100.00
9474;BME280;8865;47.636;7.692;2023-04-27T00:33:33;98311.56;;;10.70;100.00
9474;BME280;8865;47.636;7.692;2023-04-27T00:35:59;98313.94;;;10.73;100.00
9474;BME280;8865;47.636;7.692;2023-04-27T00:38:27;98309.41;;;10.75;100.00
9474;BME280;8865;47.636;7.692;2023-04-27T00:41:03;98308.56;;;10.75;100.00
9474;BME280;8865;47.636;7.692;2023-04-27T00:43:30;98311.31;;;10.73;100.00
9474;BME280;8865;47.636;7.692;2023-04-27T00:45:58;98309.69;;;10.72;100.00
9474;BME280;8865;47.636;7.692;2023-04-27T00:48:24;98310.75;;;10.69;100.00
9474;BME280;8865;47.636;7.692;2023-04-27T00:50:51;98309.81;;;10.70;100.00
9474;BME280;8865;47.636;7.692;2023-04-27T00:53:17;98308.13;;;10.69;100.00
9474;BME280;8865;47.636;7.692;2023-04-27T00:55:43;98301.50;;;10.65;100.00
9474;BME280;8865;47.636;7.692;2023-04-27T00:58:09;98300.81;;;10.63;100.00
9474;BME280;8865;47.636;7.692;2023-04-27T01:00:37;98291.53;;;10.59;100.00
9474;BME280;8865;47.636;7.692;2023-04-27T01:03:03;98299.41;;;10.59;100.00
9474;BME280;8865;47.636;7.692;2023-04-27T01:05:29;98295.00;;;10.60;100.00
9474;BME280;8865;47.636;7.692;2023-04-27T01:07:55;98302.88;;;10.60;100.00
9474;BME280;8865;47.636;7.692;2023-04-27T01:10:21;98303.56;;;10.62;100.00
9474;BME280;8865;47.636;7.692;2023-04-27T01:12:47;98314.84;;;10.62;100.00
9474;BME280;8865;47.636;7.692;2023-04-27T01:15:14;98311.53;;;10.60;100.00
9474;BME280;8865;47.636;7.692;2023-04-27T01:17:40;98307.25;;;10.59;100.00
9474;BME280;8865;47.636;7.692;2023-04-27T01:20:07;98311.53;;;10.60;100.00
9474;BME280;8865;47.636;7.692;2023-04-27T01:22:35;98314.16;;;10.60;100.00
9474;BME280;8865;47.636;7.692;2023-04-27T01:25:01;98315.97;;;10.60;100.00
9474;BME280;8865;47.636;7.692;2023-04-27T01:27:27;98318.72;;;10.58;100.00
9474;BME280;8865;47.636;7.692;2023-04-27T01:29:53;98319.53;;;10.59;100.00
9474;BME280;8865;47.636;7.692;2023-04-27T01:32:19;98328.59;;;10.54;100.00
9474;BME280;8865;47.636;7.692;2023-04-27T01:34:45;98329.44;;;10.55;100.00
9474;BME280;8865;47.636;7.692;2023-04-27T01:37:11;98327.78;;;10.54;100.00
9474;BME280;8865;47.636;7.692;2023-04-27T01:39:37;98322.28;;;10.57;100.00
9474;BME280;8865;47.636;7.692;2023-04-27T01:42:03;98331.34;;;10.53;100.00
9474;BME280;8865;47.636;7.692;2023-04-27T01:44:29;98328.16;;;10.49;100.00
9474;BME280;8865;47.636;7.692;2023-04-27T01:46:55;98329.94;;;10.49;100.00
9474;BME280;8865;47.636;7.692;2023-04-27T01:49:21;98327.06;;;10.52;100.00
9474;BME280;8865;47.636;7.692;2023-04-27T01:51:47;98328.03;;;10.51;100.00
9474;BME280;8865;47.636;7.692;2023-04-27T01:54:13;98328.31;;;10.48;100.00
9474;BME280;8865;47.636;7.692;2023-04-27T01:56:39;98333.28;;;10.51;100.00
9474;BME280;8865;47.636;7.692;2023-04-27T01:59:05;98329.00;;;10.50;100.00
9474;BME280;8865;47.636;7.692;2023-04-27T02:01:31;98328.72;;;10.53;100.00
9474;BME280;8865;47.636;7.692;2023-04-27T02:03:57;98330.41;;;10.54;100.00
9474;BME280;8865;47.636;7.692;2023-04-27T02:06:23;98319.59;;;10.47;100.00
9474;BME280;8865;47.636;7.692;2023-04-27T02:08:49;98314.06;;;10.41;100.00
9474;BME280;8865;47.636;7.692;2023-04-27T02:11:15;98317.50;;;10.41;100.00
9474;BME280;8865;47.636;7.692;2023-04-27T02:13:41;98328.69;;;10.43;100.00
9474;BME280;8865;47.636;7.692;2023-04-27T02:16:07;98326.91;;;10.44;100.00
9474;BME280;8865;47.636;7.692;2023-04-27T02:18:33;98322.47;;;10.44;100.00
9474;BME280;8865;47.636;7.692;2023-04-27T02:21:00;98326.06;;;10.43;100.00
9474;BME280;8865;47.636;7.692;2023-04-27T02:23:26;98319.31;;;10.41;100.00
9474;BME280;8865;47.636;7.692;2023-04-27T02:25:52;98321.22;;;10.39;100.00
9474;BME280;8865;47.636;7.692;2023-04-27T02:28:19;98318.59;;;10.39;100.00
9474;BME280;8865;47.636;7.692;2023-04-27T02:30:45;98320.75;;;10.33;100.00
9474;BME280;8865;47.636;7.692;2023-04-27T02:33:11;98323.97;;;10.37;100.00
9474;BME280;8865;47.636;7.692;2023-04-27T02:35:37;98318.88;;;10.35;100.00
9474;BME280;8865;47.636;7.692;2023-04-27T02:38:04;98324.34;;;10.32;100.00
9474;BME280;8865;47.636;7.692;2023-04-27T02:40:30;98325.78;;;10.25;100.00
9474;BME280;8865;47.636;7.692;2023-04-27T02:42:56;98315.84;;;10.19;100.00
9474;BME280;8865;47.636;7.692;2023-04-27T02:45:46;98319.28;;;10.19;100.00
9474;BME280;8865;47.636;7.692;2023-04-27T02:48:12;98330.59;;;10.20;100.00
9474;BME280;8865;47.636;7.692;2023-04-27T02:50:42;98327.25;;;10.18;100.00
9474;BME280;8865;47.636;7.692;2023-04-27T02:53:09;98322.09;;;10.07;100.00
9474;BME280;8865;47.636;7.692;2023-04-27T02:55:36;98315.13;;;9.96;100.00
9474;BME280;8865;47.636;7.692;2023-04-27T02:58:03;98313.34;;;9.96;100.00
9474;BME280;8865;47.636;7.692;2023-04-27T03:00:29;98319.41;;;9.97;100.00
9474;BME280;8865;47.636;7.692;2023-04-27T03:02:55;98327.00;;;10.00;100.00
9474;BME280;8865;47.636;7.692;2023-04-27T03:05:21;98321.66;;;10.01;100.00
9474;BME280;8865;47.636;7.692;2023-04-27T03:07:47;98328.53;;;10.02;100.00
9474;BME280;8865;47.636;7.692;2023-04-27T03:10:13;98329.25;;;10.05;100.00
9474;BME280;8865;47.636;7.692;2023-04-27T03:12:39;98329.25;;;10.05;100.00
9474;BME280;8865;47.636;7.692;2023-04-27T03:15:05;98322.66;;;9.89;100.00
9474;BME280;8865;47.636;7.692;2023-04-27T03:17:32;98325.28;;;9.89;100.00
9474;BME280;8865;47.636;7.692;2023-04-27T03:19:58;98329.41;;;9.92;100.00
9474;BME280;8865;47.636;7.692;2023-04-27T03:22:24;98326.56;;;9.95;100.00
9474;BME280;8865;47.636;7.692;2023-04-27T03:24:50;98326.34;;;9.87;100.00
9474;BME280;8865;47.636;7.692;2023-04-27T03:27:16;98328.66;;;9.80;100.00
9474;BME280;8865;47.636;7.692;2023-04-27T03:29:42;98330.41;;;9.79;100.00
9474;BME280;8865;47.636;7.692;2023-04-27T03:32:08;98329.59;;;9.79;100.00
9474;BME280;8865;47.636;7.692;2023-04-27T03:34:34;98331.84;;;9.83;100.00
9474;BME280;8865;47.636;7.692;2023-04-27T03:37:00;98337.78;;;9.86;100.00
9474;BME280;8865;47.636;7.692;2023-04-27T03:39:26;98343.84;;;9.86;100.00
9474;BME280;8865;47.636;7.692;2023-04-27T03:41:52;98334.72;;;9.80;100.00
9474;BME280;8865;47.636;7.692;2023-04-27T03:44:18;98327.69;;;9.81;100.00
9474;BME280;8865;47.636;7.692;2023-04-27T03:46:45;98333.88;;;9.80;100.00
9474;BME280;8865;47.636;7.692;2023-04-27T03:49:10;98332.47;;;9.76;100.00
9474;BME280;8865;47.636;7.692;2023-04-27T03:51:36;98338.41;;;9.78;100.00
9474;BME280;8865;47.636;7.692;2023-04-27T03:54:07;98335.78;;;9.78;100.00
9474;BME280;8865;47.636;7.692;2023-04-27T03:56:33;98341.00;;;9.78;100.00
9474;BME280;8865;47.636;7.692;2023-04-27T03:58:59;98346.97;;;9.80;100.00
9474;BME280;8865;47.636;7.692;2023-04-27T04:01:25;98340.75;;;9.81;100.00
9474;BME280;8865;47.636;7.692;2023-04-27T04:03:51;98346.25;;;9.78;100.00
9474;BME280;8865;47.636;7.692;2023-04-27T04:06:17;98344.34;;;9.80;100.00
9474;BME280;8865;47.636;7.692;2023-04-27T04:08:43;98344.09;;;9.83;100.00
9474;BME280;8865;47.636;7.692;2023-04-27T04:11:09;98349.09;;;9.86;100.00
9474;BME280;8865;47.636;7.692;2023-04-27T04:13:35;98347.41;;;9.85;100.00
9474;BME280;8865;47.636;7.692;2023-04-27T04:16:06;98345.75;;;9.84;100.00
9474;BME280;8865;47.636;7.692;2023-04-27T04:18:32;98353.47;;;9.86;100.00
9474;BME280;8865;47.636;7.692;2023-04-27T04:20:59;98353.34;;;9.87;100.00
9474;BME280;8865;47.636;7.692;2023-04-27T04:23:25;98358.69;;;9.86;100.00
9474;BME280;8865;47.636;7.692;2023-04-27T04:25:52;98347.66;;;9.82;100.00
9474;BME280;8865;47.636;7.692;2023-04-27T04:28:19;98349.09;;;9.86;100.00
9474;BME280;8865;47.636;7.692;2023-04-27T04:30:45;98342.19;;;9.85;100.00
9474;BME280;8865;47.636;7.692;2023-04-27T04:33:11;98351.69;;;9.86;100.00
9474;BME280;8865;47.636;7.692;2023-04-27T04:35:37;98351.94;;;9.83;100.00
9474;BME280;8865;47.636;7.692;2023-04-27T04:38:03;98359.66;;;9.85;100.00
9474;BME280;8865;47.636;7.692;2023-04-27T04:40:30;98355.94;;;9.87;100.00
9474;BME280;8865;47.636;7.692;2023-04-27T04:42:56;98358.56;;;9.87;100.00
9474;BME280;8865;47.636;7.692;2023-04-27T04:45:22;98361.91;;;9.89;100.00
9474;BME280;8865;47.636;7.692;2023-04-27T04:47:48;98360.94;;;9.90;100.00
9474;BME280;8865;47.636;7.692;2023-04-27T04:50:14;98366.91;;;9.92;100.00
9474;BME280;8865;47.636;7.692;2023-04-27T04:52:40;98357.38;;;9.91;100.00
9474;BME280;8865;47.636;7.692;2023-04-27T04:55:06;98359.88;;;9.93;100.00
9474;BME280;8865;47.636;7.692;2023-04-27T04:57:32;98361.97;;;9.99;100.00
9474;BME280;8865;47.636;7.692;2023-04-27T04:59:58;98364.78;;;10.07;100.00
9474;BME280;8865;47.636;7.692;2023-04-27T05:02:24;98364.91;;;10.06;100.00
9474;BME280;8865;47.636;7.692;2023-04-27T05:04:50;98366.84;;;10.04;100.00
9474;BME280;8865;47.636;7.692;2023-04-27T05:07:17;98364.09;;;10.05;100.00
9474;BME280;8865;47.636;7.692;2023-04-27T05:09:43;98367.41;;;10.07;100.00
9474;BME280;8865;47.636;7.692;2023-04-27T05:12:09;98368.94;;;10.10;100.00
9474;BME280;8865;47.636;7.692;2023-04-27T05:14:38;98366.19;;;10.11;100.00
9474;BME280;8865;47.636;7.692;2023-04-27T05:17:04;98368.44;;;10.16;100.00
9474;BME280;8865;47.636;7.692;2023-04-27T05:19:30;98366.50;;;10.18;100.00
9474;BME280;8865;47.636;7.692;2023-04-27T05:21:57;98372.47;;;10.20;100.00
9474;BME280;8865;47.636;7.692;2023-04-27T05:24:24;98379.22;;;10.23;100.00
9474;BME280;8865;47.636;7.692;2023-04-27T05:26:51;98375.53;;;10.25;100.00
9474;BME280;8865;47.636;7.692;2023-04-27T05:29:17;98378.03;;;10.27;100.00
9474;BME280;8865;47.636;7.692;2023-04-27T05:31:43;98376.34;;;10.26;100.00
9474;BME280;8865;47.636;7.692;2023-04-27T05:34:09;98383.47;;;10.35;100.00
9474;BME280;8865;47.636;7.692;2023-04-27T05:36:35;98385.78;;;10.49;100.00
9474;BME280;8865;47.636;7.692;2023-04-27T05:39:02;98389.91;;;10.52;100.00
9474;BME280;8865;47.636;7.692;2023-04-27T05:41:28;98385.41;;;10.54;100.00
9474;BME280;8865;47.636;7.692;2023-04-27T05:43:54;98386.56;;;10.61;100.00
9474;BME280;8865;47.636;7.692;2023-04-27T05:46:21;98384.63;;;10.63;100.00
9474;BME280;8865;47.636;7.692;2023-04-27T05:48:47;98380.78;;;10.67;100.00
9474;BME280;8865;47.636;7.692;2023-04-27T05:51:13;98383.28;;;10.69;100.00
9474;BME280;8865;47.636;7.692;2023-04-27T05:53:40;98388.00;;;10.75;100.00
9474;BME280;8865;47.636;7.692;2023-04-27T05:56:09;98377.56;;;10.85;100.00
9474;BME280;8865;47.636;7.692;2023-04-27T05:58:40;98376.63;;;10.96;100.00
9474;BME280;8865;47.636;7.692;2023-04-27T06:01:13;98382.91;;;11.04;100.00
9474;BME280;8865;47.636;7.692;2023-04-27T06:03:42;98389.31;;;11.21;100.00
9474;BME280;8865;47.636;7.692;2023-04-27T06:06:25;98379.69;;;11.41;100.00
9474;BME280;8865;47.636;7.692;2023-04-27T06:09:09;98391.00;;;11.52;100.00
9474;BME280;8865;47.636;7.692;2023-04-27T06:12:10;98389.56;;;11.69;100.00
9474;BME280;8865;47.636;7.692;2023-04-27T06:14:54;98391.75;;;11.83;100.00
9474;BME280;8865;47.636;7.692;2023-04-27T06:18:41;98391.34;;;11.88;100.00
9474;BME280;8865;47.636;7.692;2023-04-27T06:21:20;98390.16;;;12.02;100.00
9474;BME280;8865;47.636;7.692;2023-04-27T06:23:46;98389.03;;;12.14;100.00
9474;BME280;8865;47.636;7.692;2023-04-27T06:26:12;98388.06;;;12.25;100.00
9474;BME280;8865;47.636;7.692;2023-04-27T06:28:38;98397.31;;;12.39;100.00
9474;BME280;8865;47.636;7.692;2023-04-27T06:31:05;98399.78;;;12.50;100.00
9474;BME280;8865;47.636;7.692;2023-04-27T06:33:32;98396.59;;;12.56;100.00
9474;BME280;8865;47.636;7.692;2023-04-27T06:35:59;98390.75;;;12.72;100.00
9474;BME280;8865;47.636;7.692;2023-04-27T06:38:25;98387.94;;;12.83;100.00
9474;BME280;8865;47.636;7.692;2023-04-27T06:40:51;98386.41;;;12.91;100.00
9474;BME280;8865;47.636;7.692;2023-04-27T06:43:18;98382.75;;;13.01;100.00
9474;BME280;8865;47.636;7.692;2023-04-27T06:45:44;98392.66;;;13.17;100.00
9474;BME280;8865;47.636;7.692;2023-04-27T06:48:10;98397.44;;;13.32;100.00
9474;BME280;8865;47.636;7.692;2023-04-27T06:50:36;98401.28;;;13.47;100.00
9474;BME280;8865;47.636;7.692;2023-04-27T06:53:02;98392.78;;;13.53;100.00
9474;BME280;8865;47.636;7.692;2023-04-27T06:55:27;98386.78;;;13.61;100.00
9474;BME280;8865;47.636;7.692;2023-04-27T06:57:53;98384.94;;;13.71;100.00
9474;BME280;8865;47.636;7.692;2023-04-27T07:00:20;98391.22;;;13.79;100.00
9474;BME280;8865;47.636;7.692;2023-04-27T07:02:46;98386.72;;;13.89;100.00
9474;BME280;8865;47.636;7.692;2023-04-27T07:05:12;98388.75;;;13.95;100.00
9474;BME280;8865;47.636;7.692;2023-04-27T07:07:38;98386.72;;;14.07;100.00
9474;BME280;8865;47.636;7.692;2023-04-27T07:10:31;98388.81;;;14.21;100.00
9474;BME280;8865;47.636;7.692;2023-04-27T07:12:58;98381.28;;;14.26;100.00
9474;BME280;8865;47.636;7.692;2023-04-27T07:15:29;98385.28;;;14.31;100.00
9474;BME280;8865;47.636;7.692;2023-04-27T07:17:55;98377.66;;;14.27;100.00
9474;BME280;8865;47.636;7.692;2023-04-27T07:20:22;98381.28;;;14.26;100.00
9474;BME280;8865;47.636;7.692;2023-04-27T07:22:48;98377.53;;;14.29;100.00
9474;BME280;8865;47.636;7.692;2023-04-27T07:25:14;98383.25;;;14.24;100.00
9474;BME280;8865;47.636;7.692;2023-04-27T07:27:41;98378.19;;;14.31;100.00
9474;BME280;8865;47.636;7.692;2023-04-27T07:30:07;98369.31;;;14.32;100.00
9474;BME280;8865;47.636;7.692;2023-04-27T07:32:35;98357.09;;;14.31;100.00
9474;BME280;8865;47.636;7.692;2023-04-27T07:35:01;98362.31;;;14.41;100.00
9474;BME280;8865;47.636;7.692;2023-04-27T07:37:28;98364.31;;;14.47;100.00
9474;BME280;8865;47.636;7.692;2023-04-27T07:39:54;98362.69;;;14.54;100.00
9474;BME280;8865;47.636;7.692;2023-04-27T07:42:20;98351.47;;;14.70;100.00
9474;BME280;8865;47.636;7.692;2023-04-27T07:44:50;98353.34;;;14.78;100.00
9474;BME280;8865;47.636;7.692;2023-04-27T07:47:16;98348.31;;;14.93;100.00
9474;BME280;8865;47.636;7.692;2023-04-27T07:49:43;98360.84;;;14.99;100.00
9474;BME280;8865;47.636;7.692;2023-04-27T07:52:13;98352.34;;;14.79;100.00
9474;BME280;8865;47.636;7.692;2023-04-27T07:54:39;98355.00;;;14.79;100.00
9474;BME280;8865;47.636;7.692;2023-04-27T07:57:09;98357.34;;;14.90;100.00
9474;BME280;8865;47.636;7.692;2023-04-27T07:59:38;98352.25;;;14.97;100.00
9474;BME280;8865;47.636;7.692;2023-04-27T08:02:04;98350.81;;;15.03;100.00
9474;BME280;8865;47.636;7.692;2023-04-27T08:04:30;98349.84;;;15.12;100.00
9474;BME280;8865;47.636;7.692;2023-04-27T08:06:57;98350.34;;;15.07;100.00
9474;BME280;8865;47.636;7.692;2023-04-27T08:09:23;98348.72;;;15.14;100.00
9474;BME280;8865;47.636;7.692;2023-04-27T08:11:49;98348.09;;;15.29;100.00
9474;BME280;8865;47.636;7.692;2023-04-27T08:14:15;98342.34;;;15.42;100.00
9474;BME280;8865;47.636;7.692;2023-04-27T08:16:41;98343.69;;;15.38;100.00
9474;BME280;8865;47.636;7.692;2023-04-27T08:19:08;98344.72;;;15.61;100.00
9474;BME280;8865;47.636;7.692;2023-04-27T08:21:35;98342.81;;;15.88;100.00
9474;BME280;8865;47.636;7.692;2023-04-27T08:24:02;98338.84;;;16.17;100.00
9474;BME280;8865;47.636;7.692;2023-04-27T08:26:28;98328.25;;;16.50;100.00
9474;BME280;8865;47.636;7.692;2023-04-27T08:28:54;98331.28;;;16.94;100.00
9474;BME280;8865;47.636;7.692;2023-04-27T08:31:24;98330.81;;;17.22;100.00
9474;BME280;8865;47.636;7.692;2023-04-27T08:33:52;98324.22;;;17.49;100.00
9474;BME280;8865;47.636;7.692;2023-04-27T08:36:20;98328.34;;;17.75;100.00
9474;BME280;8865;47.636;7.692;2023-04-27T08:38:46;98329.03;;;18.00;100.00
9474;BME280;8865;47.636;7.692;2023-04-27T08:41:17;98326.94;;;18.34;98.36
9474;BME280;8865;47.636;7.692;2023-04-27T08:43:44;98322.28;;;18.66;91.44
9474;BME280;8865;47.636;7.692;2023-04-27T08:46:10;98321.09;;;18.83;90.27
9474;BME280;8865;47.636;7.692;2023-04-27T08:48:36;98319.38;;;18.90;76.06
9474;BME280;8865;47.636;7.692;2023-04-27T08:51:06;98311.25;;;19.28;81.33
9474;BME280;8865;47.636;7.692;2023-04-27T08:53:35;98310.72;;;19.55;79.35
9474;BME280;8865;47.636;7.692;2023-04-27T08:56:03;98308.63;;;19.72;75.50
9474;BME280;8865;47.636;7.692;2023-04-27T08:58:36;98305.81;;;19.95;77.13
9474;BME280;8865;47.636;7.692;2023-04-27T09:01:05;98303.59;;;20.20;74.78
9474;BME280;8865;47.636;7.692;2023-04-27T09:03:32;98309.13;;;20.25;67.69
9474;BME280;8865;47.636;7.692;2023-04-27T09:06:00;98311.88;;;20.32;64.17
9474;BME280;8865;47.636;7.692;2023-04-27T09:08:26;98312.91;;;20.38;64.54
9474;BME280;8865;47.636;7.692;2023-04-27T09:10:52;98313.47;;;20.05;59.67
9474;BME280;8865;47.636;7.692;2023-04-27T09:13:19;98314.25;;;19.98;58.98
9474;BME280;8865;47.636;7.692;2023-04-27T09:15:47;98316.00;;;20.13;65.50
9474;BME280;8865;47.636;7.692;2023-04-27T09:18:21;98322.56;;;20.45;67.88
9474;BME280;8865;47.636;7.692;2023-04-27T09:20:49;98315.72;;;20.29;61.48
9474;BME280;8865;47.636;7.692;2023-04-27T09:23:33;98307.38;;;20.39;61.35
9474;BME280;8865;47.636;7.692;2023-04-27T09:26:01;98304.41;;;20.49;60.11
9474;BME280;8865;47.636;7.692;2023-04-27T09:28:29;98306.34;;;21.03;58.69
9474;BME280;8865;47.636;7.692;2023-04-27T09:30:59;98312.69;;;21.57;58.22
9474;BME280;8865;47.636;7.692;2023-04-27T09:33:32;98315.25;;;21.31;53.97
9474;BME280;8865;47.636;7.692;2023-04-27T09:36:00;98317.13;;;20.88;53.60
9474;BME280;8865;47.636;7.692;2023-04-27T09:38:27;98310.78;;;21.45;55.18
9474;BME280;8865;47.636;7.692;2023-04-27T09:40:54;98307.19;;;21.79;53.12
9474;BME280;8865;47.636;7.692;2023-04-27T09:43:21;98305.31;;;21.53;53.74
9474;BME280;8865;47.636;7.692;2023-04-27T09:45:49;98309.66;;;21.94;51.76
9474;BME280;8865;47.636;7.692;2023-04-27T09:48:16;98308.66;;;22.02;48.45
9474;BME280;8865;47.636;7.692;2023-04-27T09:50:43;98309.06;;;22.39;50.70
9474;BME280;8865;47.636;7.692;2023-04-27T09:53:14;98307.63;;;22.56;48.11
9474;BME280;8865;47.636;7.692;2023-04-27T10:01:44;98302.84;;;23.69;44.79
9474;BME280;8865;47.636;7.692;2023-04-27T10:07:00;98302.47;;;24.66;40.85
9474;BME280;8865;47.636;7.692;2023-04-27T10:09:35;98293.63;;;25.03;40.66
9474;BME280;8865;47.636;7.692;2023-04-27T10:12:32;98294.59;;;25.57;39.63
9474;BME280;8865;47.636;7.692;2023-04-27T10:14:59;98281.91;;;25.76;37.75
9474;BME280;8865;47.636;7.692;2023-04-27T10:17:36;98285.13;;;26.44;37.01
9474;BME280;8865;47.636;7.692;2023-04-27T10:20:06;98284.16;;;27.26;34.06
9474;BME280;8865;47.636;7.692;2023-04-27T10:22:47;98274.69;;;28.55;31.84
9474;BME280;8865;47.636;7.692;2023-04-27T10:27:59;98271.88;;;31.51;30.51
9474;BME280;8865;47.636;7.692;2023-04-27T10:30:32;98263.28;;;32.97;27.84
9474;BME280;8865;47.636;7.692;2023-04-27T10:33:04;98265.41;;;33.55;25.13
9474;BME280;8865;47.636;7.692;2023-04-27T10:35:32;98262.97;;;33.93;24.60
9474;BME280;8865;47.636;7.692;2023-04-27T10:38:09;98265.94;;;34.50;23.23
9474;BME280;8865;47.636;7.692;2023-04-27T10:40:37;98261.94;;;34.43;23.04
9474;BME280;8865;47.636;7.692;2023-04-27T10:43:16;98263.22;;;35.37;24.28
9474;BME280;8865;47.636;7.692;2023-04-27T10:45:43;98258.72;;;36.31;22.46
9474;BME280;8865;47.636;7.692;2023-04-27T10:48:13;98252.38;;;36.36;22.13
9474;BME280;8865;47.636;7.692;2023-04-27T10:50:40;98249.97;;;37.26;22.27
9474;BME280;8865;47.636;7.692;2023-04-27T10:53:07;98247.06;;;37.45;19.96
9474;BME280;8865;47.636;7.692;2023-04-27T10:55:34;98246.97;;;36.86;19.27
9474;BME280;8865;47.636;7.692;2023-04-27T10:58:00;98249.38;;;36.18;19.44
9474;BME280;8865;47.636;7.692;2023-04-27T11:00:32;98237.03;;;36.07;20.35
9474;BME280;8865;47.636;7.692;2023-04-27T11:03:18;98238.75;;;36.03;19.46
9474;BME280;8865;47.636;7.692;2023-04-27T11:05:47;98223.34;;;36.26;19.20
9474;BME280;8865;47.636;7.692;2023-04-27T11:08:17;98233.31;;;35.51;20.95
9474;BME280;8865;47.636;7.692;2023-04-27T11:10:49;98230.91;;;36.98;19.92
9474;BME280;8865;47.636;7.692;2023-04-27T11:13:17;98235.97;;;36.91;18.84
9474;BME280;8865;47.636;7.692;2023-04-27T11:15:52;98225.19;;;37.23;19.77
9474;BME280;8865;47.636;7.692;2023-04-27T11:18:24;98225.75;;;38.01;19.13
9474;BME280;8865;47.636;7.692;2023-04-27T11:20:53;98233.13;;;38.32;18.18
9474;BME280;8865;47.636;7.692;2023-04-27T11:23:23;98226.16;;;38.17;17.50
9474;BME280;8865;47.636;7.692;2023-04-27T11:25:50;98224.00;;;38.54;18.72
9474;BME280;8865;47.636;7.692;2023-04-27T11:28:18;98219.78;;;37.77;18.83
9474;BME280;8865;47.636;7.692;2023-04-27T11:30:44;98223.84;;;38.59;18.92
9474;BME280;8865;47.636;7.692;2023-04-27T11:33:10;98214.31;;;39.06;18.02
9474;BME280;8865;47.636;7.692;2023-04-27T11:35:36;98211.25;;;38.32;16.49
9474;BME280;8865;47.636;7.692;2023-04-27T11:38:04;98212.44;;;37.86;17.30
9474;BME280;8865;47.636;7.692;2023-04-27T11:40:30;98210.72;;;38.79;17.80
9474;BME280;8865;47.636;7.692;2023-04-27T11:42:57;98204.13;;;38.22;17.12
9474;BME280;8865;47.636;7.692;2023-04-27T11:45:25;98206.69;;;38.68;17.49
9474;BME280;8865;47.636;7.692;2023-04-27T11:47:57;98205.56;;;38.29;17.72
9474;BME280;8865;47.636;7.692;2023-04-27T11:50:24;98197.16;;;37.17;18.01
9474;BME280;8865;47.636;7.692;2023-04-27T11:52:51;98198.44;;;37.33;17.62
9474;BME280;8865;47.636;7.692;2023-04-27T11:55:21;98200.06;;;37.34;17.48
9474;BME280;8865;47.636;7.692;2023-04-27T11:57:47;98198.59;;;38.54;17.04
9474;BME280;8865;47.636;7.692;2023-04-27T12:00:14;98193.16;;;38.71;16.59
9474;BME280;8865;47.636;7.692;2023-04-27T12:02:42;98190.94;;;39.00;16.76
9474;BME280;8865;47.636;7.692;2023-04-27T12:05:08;98192.41;;;38.39;16.00
9474;BME280;8865;47.636;7.692;2023-04-27T12:07:34;98189.75;;;38.66;17.08
9474;BME280;8865;47.636;7.692;2023-04-27T12:10:01;98192.72;;;39.31;17.31
9474;BME280;8865;47.636;7.692;2023-04-27T12:12:27;98198.34;;;39.08;15.74
9474;BME280;8865;47.636;7.692;2023-04-27T12:14:53;98203.53;;;39.09;15.45
9474;BME280;8865;47.636;7.692;2023-04-27T12:17:19;98193.53;;;38.30;16.62
9474;BME280;8865;47.636;7.692;2023-04-27T12:19:45;98199.81;;;37.08;16.95
9474;BME280;8865;47.636;7.692;2023-04-27T12:22:13;98202.41;;;37.73;17.40
9474;BME280;8865;47.636;7.692;2023-04-27T12:24:39;98201.34;;;35.23;18.03
9474;BME280;8865;47.636;7.692;2023-04-27T12:27:05;98201.44;;;34.75;19.26
9474;BME280;8865;47.636;7.692;2023-04-27T12:29:32;98199.38;;;33.25;19.87
9474;BME280;8865;47.636;7.692;2023-04-27T12:31:58;98190.88;;;32.22;21.30
9474;BME280;8865;47.636;7.692;2023-04-27T12:34:25;98195.75;;;32.25;21.47
9474;BME280;8865;47.636;7.692;2023-04-27T12:36:51;98196.88;;;31.26;21.93
9474;BME280;8865;47.636;7.692;2023-04-27T12:39:21;98187.69;;;29.96;24.24
9474;BME280;8865;47.636;7.692;2023-04-27T12:41:49;98187.84;;;30.21;24.80
9474;BME280;8865;47.636;7.692;2023-04-27T12:44:17;98186.88;;;31.32;22.31
9474;BME280;8865;47.636;7.692;2023-04-27T12:46:44;98187.16;;;32.78;21.42
9474;BME280;8865;47.636;7.692;2023-04-27T12:49:10;98174.47;;;34.11;21.23
9474;BME280;8865;47.636;7.692;2023-04-27T12:51:37;98177.06;;;34.89;19.79
9474;BME280;8865;47.636;7.692;2023-04-27T12:54:04;98169.69;;;34.46;20.33
9474;BME280;8865;47.636;7.692;2023-04-27T12:56:33;98174.22;;;34.56;20.16
9474;BME280;8865;47.636;7.692;2023-04-27T12:59:02;98165.06;;;33.69;19.95
9474;BME280;8865;47.636;7.692;2023-04-27T13:01:47;98166.53;;;34.15;20.14
9474;BME280;8865;47.636;7.692;2023-04-27T13:04:18;98172.25;;;34.13;20.51
9474;BME280;8865;47.636;7.692;2023-04-27T13:06:44;98176.72;;;34.96;19.29
9474;BME280;8865;47.636;7.692;2023-04-27T13:09:11;98167.78;;;35.61;18.21
9474;BME280;8865;47.636;7.692;2023-04-27T13:11:42;98174.44;;;35.55;18.05
9474;BME280;8865;47.636;7.692;2023-04-27T13:14:08;98164.88;;;35.38;20.11
9474;BME280;8865;47.636;7.692;2023-04-27T13:16:41;98174.34;;;35.08;20.30
9474;BME280;8865;47.636;7.692;2023-04-27T13:19:09;98159.09;;;35.26;18.31
9474;BME280;8865;47.636;7.692;2023-04-27T13:21:35;98172.09;;;34.72;19.49
9474;BME280;8865;47.636;7.692;2023-04-27T13:24:01;98178.66;;;35.47;18.13
9474;BME280;8865;47.636;7.692;2023-04-27T13:26:29;98172.13;;;35.10;18.43
9474;BME280;8865;47.636;7.692;2023-04-27T13:28:56;98173.47;;;34.69;19.24
9474;BME280;8865;47.636;7.692;2023-04-27T13:31:22;98165.91;;;35.43;20.33
9474;BME280;8865;47.636;7.692;2023-04-27T13:33:49;98159.81;;;36.39;18.02